Terminal Aerodrome Forecast
Issued by NWS Lake Charles, LA

Home | Current Version | Previous Version | Text Only | Print | Product List | Glossary On
Versions: 1 2 3 4 5 6 7 8 9 10 11 12 13 14 15 16 17 18
000
FTUS44 KLCH 221127
TAFBPT
TAF
KBPT 221127Z 2212/2312 VRB05KT P6SM VCTS SCT015CB BKN035
      TEMPO 2214/2215 36015G25KT 2SM TSRA BKN015CB
     FM221500 03008KT 6SM -TSRA FEW015CB OVC090
     FM221600 VRB05KT P6SM -RA SCT015 OVC090
     FM222200 34005KT P6SM SCT250=

USA.gov is the U.S. government's official web portal to all federal, state and local government web resources and services.